sensor_id;sensor_type;location;lat;lon;timestamp;P1;durP1;ratioP1;P2;durP2;ratioP2
44766;SDS011;30487;48.716;9.272;2023-02-04T00:01:31;3.65;;;2.08;;
44766;SDS011;30487;48.716;9.272;2023-02-04T00:03:58;2.95;;;1.88;;
44766;SDS011;30487;48.716;9.272;2023-02-04T00:06:23;5.28;;;2.20;;
44766;SDS011;30487;48.716;9.272;2023-02-04T00:08:49;2.65;;;1.65;;
44766;SDS011;30487;48.716;9.272;2023-02-04T00:11:15;3.72;;;2.08;;
44766;SDS011;30487;48.716;9.272;2023-02-04T00:13:41;3.22;;;1.88;;
44766;SDS011;30487;48.716;9.272;2023-02-04T00:16:06;3.28;;;2.13;;
44766;SDS011;30487;48.716;9.272;2023-02-04T00:18:32;3.50;;;1.77;;
44766;SDS011;30487;48.716;9.272;2023-02-04T00:20:58;4.28;;;1.80;;
44766;SDS011;30487;48.716;9.272;2023-02-04T00:23:23;3.70;;;1.70;;
44766;SDS011;30487;48.716;9.272;2023-02-04T00:25:49;2.90;;;1.75;;
44766;SDS011;30487;48.716;9.272;2023-02-04T00:28:14;3.30;;;1.70;;
44766;SDS011;30487;48.716;9.272;2023-02-04T00:30:40;3.05;;;1.50;;
44766;SDS011;30487;48.716;9.272;2023-02-04T00:33:06;2.47;;;1.30;;
44766;SDS011;30487;48.716;9.272;2023-02-04T00:35:32;2.42;;;1.50;;
44766;SDS011;30487;48.716;9.272;2023-02-04T00:37:57;3.38;;;1.80;;
44766;SDS011;30487;48.716;9.272;2023-02-04T00:40:23;3.13;;;1.83;;
44766;SDS011;30487;48.716;9.272;2023-02-04T00:42:48;3.25;;;1.40;;
44766;SDS011;30487;48.716;9.272;2023-02-04T00:45:14;4.20;;;1.70;;
44766;SDS011;30487;48.716;9.272;2023-02-04T00:47:39;2.15;;;1.30;;
44766;SDS011;30487;48.716;9.272;2023-02-04T00:50:05;3.15;;;1.30;;
44766;SDS011;30487;48.716;9.272;2023-02-04T00:52:31;3.35;;;1.48;;
44766;SDS011;30487;48.716;9.272;2023-02-04T00:54:57;4.30;;;1.60;;
44766;SDS011;30487;48.716;9.272;2023-02-04T00:57:22;4.50;;;1.35;;
44766;SDS011;30487;48.716;9.272;2023-02-04T00:59:48;1.95;;;1.15;;
44766;SDS011;30487;48.716;9.272;2023-02-04T01:02:13;4.35;;;1.38;;
44766;SDS011;30487;48.716;9.272;2023-02-04T01:04:39;3.75;;;1.35;;
44766;SDS011;30487;48.716;9.272;2023-02-04T01:07:05;3.05;;;1.40;;
44766;SDS011;30487;48.716;9.272;2023-02-04T01:09:30;3.78;;;1.20;;
44766;SDS011;30487;48.716;9.272;2023-02-04T01:11:56;2.05;;;1.10;;
44766;SDS011;30487;48.716;9.272;2023-02-04T01:14:21;3.72;;;1.25;;
44766;SDS011;30487;48.716;9.272;2023-02-04T01:16:47;3.17;;;1.25;;
44766;SDS011;30487;48.716;9.272;2023-02-04T01:19:13;2.50;;;1.40;;
44766;SDS011;30487;48.716;9.272;2023-02-04T01:21:38;2.90;;;1.40;;
44766;SDS011;30487;48.716;9.272;2023-02-04T01:24:04;3.30;;;1.95;;
44766;SDS011;30487;48.716;9.272;2023-02-04T01:26:29;2.70;;;1.40;;
44766;SDS011;30487;48.716;9.272;2023-02-04T01:28:55;2.53;;;1.42;;
44766;SDS011;30487;48.716;9.272;2023-02-04T01:31:21;2.92;;;1.42;;
44766;SDS011;30487;48.716;9.272;2023-02-04T01:33:46;4.68;;;1.70;;
44766;SDS011;30487;48.716;9.272;2023-02-04T01:36:12;3.55;;;1.73;;
44766;SDS011;30487;48.716;9.272;2023-02-04T01:38:37;3.78;;;1.95;;
44766;SDS011;30487;48.716;9.272;2023-02-04T01:41:03;3.55;;;2.08;;
44766;SDS011;30487;48.716;9.272;2023-02-04T01:43:30;4.97;;;1.70;;
44766;SDS011;30487;48.716;9.272;2023-02-04T01:45:56;5.80;;;1.98;;
44766;SDS011;30487;48.716;9.272;2023-02-04T01:48:21;3.42;;;1.88;;
44766;SDS011;30487;48.716;9.272;2023-02-04T01:50:49;3.03;;;1.65;;
44766;SDS011;30487;48.716;9.272;2023-02-04T01:53:18;4.10;;;1.45;;
44766;SDS011;30487;48.716;9.272;2023-02-04T01:55:46;2.97;;;1.52;;
44766;SDS011;30487;48.716;9.272;2023-02-04T01:58:12;2.60;;;1.15;;
44766;SDS011;30487;48.716;9.272;2023-02-04T02:00:39;4.20;;;0.93;;
44766;SDS011;30487;48.716;9.272;2023-02-04T02:03:05;3.08;;;0.82;;
44766;SDS011;30487;48.716;9.272;2023-02-04T02:05:36;2.75;;;0.90;;
44766;SDS011;30487;48.716;9.272;2023-02-04T02:08:04;2.63;;;1.05;;
44766;SDS011;30487;48.716;9.272;2023-02-04T02:10:31;4.10;;;0.80;;
44766;SDS011;30487;48.716;9.272;2023-02-04T02:12:58;3.20;;;1.02;;
44766;SDS011;30487;48.716;9.272;2023-02-04T02:15:24;4.28;;;0.80;;
44766;SDS011;30487;48.716;9.272;2023-02-04T02:17:51;2.30;;;0.90;;
44766;SDS011;30487;48.716;9.272;2023-02-04T02:20:18;5.00;;;0.88;;
44766;SDS011;30487;48.716;9.272;2023-02-04T02:25:43;7.00;;;0.95;;
44766;SDS011;30487;48.716;9.272;2023-02-04T02:28:10;4.68;;;1.00;;
44766;SDS011;30487;48.716;9.272;2023-02-04T02:30:38;3.42;;;0.80;;
44766;SDS011;30487;48.716;9.272;2023-02-04T02:33:05;6.07;;;1.20;;
44766;SDS011;30487;48.716;9.272;2023-02-04T02:35:31;6.38;;;1.13;;
44766;SDS011;30487;48.716;9.272;2023-02-04T02:37:57;8.13;;;1.00;;
44766;SDS011;30487;48.716;9.272;2023-02-04T02:40:23;2.97;;;0.88;;
44766;SDS011;30487;48.716;9.272;2023-02-04T02:42:50;5.22;;;1.20;;
44766;SDS011;30487;48.716;9.272;2023-02-04T02:45:24;5.43;;;1.50;;
44766;SDS011;30487;48.716;9.272;2023-02-04T02:47:51;8.75;;;1.15;;
44766;SDS011;30487;48.716;9.272;2023-02-04T02:50:22;6.25;;;1.10;;
44766;SDS011;30487;48.716;9.272;2023-02-04T02:52:50;8.07;;;1.33;;
44766;SDS011;30487;48.716;9.272;2023-02-04T02:55:17;6.15;;;1.27;;
44766;SDS011;30487;48.716;9.272;2023-02-04T02:57:45;4.60;;;1.25;;
44766;SDS011;30487;48.716;9.272;2023-02-04T03:00:12;6.07;;;1.45;;
44766;SDS011;30487;48.716;9.272;2023-02-04T03:03:09;4.90;;;1.30;;
44766;SDS011;30487;48.716;9.272;2023-02-04T03:05:40;3.85;;;1.05;;
44766;SDS011;30487;48.716;9.272;2023-02-04T03:08:07;6.97;;;1.40;;
44766;SDS011;30487;48.716;9.272;2023-02-04T03:10:35;6.70;;;1.10;;
44766;SDS011;30487;48.716;9.272;2023-02-04T03:13:01;5.57;;;1.10;;
44766;SDS011;30487;48.716;9.272;2023-02-04T03:15:27;12.25;;;1.48;;
44766;SDS011;30487;48.716;9.272;2023-02-04T03:17:53;8.25;;;1.30;;
44766;SDS011;30487;48.716;9.272;2023-02-04T03:20:21;4.07;;;1.10;;
44766;SDS011;30487;48.716;9.272;2023-02-04T03:22:49;5.93;;;1.33;;
44766;SDS011;30487;48.716;9.272;2023-02-04T03:25:15;2.70;;;0.98;;
44766;SDS011;30487;48.716;9.272;2023-02-04T03:27:41;4.80;;;1.25;;
44766;SDS011;30487;48.716;9.272;2023-02-04T03:30:06;8.23;;;1.00;;
44766;SDS011;30487;48.716;9.272;2023-02-04T03:32:33;8.43;;;1.50;;
44766;SDS011;30487;48.716;9.272;2023-02-04T03:34:59;6.82;;;1.20;;
44766;SDS011;30487;48.716;9.272;2023-02-04T03:37:24;7.93;;;1.60;;
44766;SDS011;30487;48.716;9.272;2023-02-04T03:39:50;6.90;;;1.30;;
44766;SDS011;30487;48.716;9.272;2023-02-04T03:42:15;8.88;;;1.67;;
44766;SDS011;30487;48.716;9.272;2023-02-04T03:44:41;9.80;;;1.40;;
44766;SDS011;30487;48.716;9.272;2023-02-04T03:47:07;8.15;;;1.73;;
44766;SDS011;30487;48.716;9.272;2023-02-04T03:49:33;6.85;;;1.55;;
44766;SDS011;30487;48.716;9.272;2023-02-04T03:51:59;4.85;;;1.55;;
44766;SDS011;30487;48.716;9.272;2023-02-04T03:54:25;6.25;;;1.33;;
44766;SDS011;30487;48.716;9.272;2023-02-04T03:56:51;5.88;;;1.20;;
44766;SDS011;30487;48.716;9.272;2023-02-04T03:59:17;5.95;;;1.13;;
44766;SDS011;30487;48.716;9.272;2023-02-04T04:01:42;5.22;;;1.05;;
44766;SDS011;30487;48.716;9.272;2023-02-04T04:04:08;6.85;;;1.50;;
44766;SDS011;30487;48.716;9.272;2023-02-04T04:06:33;4.82;;;1.15;;
44766;SDS011;30487;48.716;9.272;2023-02-04T04:08:59;6.93;;;1.63;;
44766;SDS011;30487;48.716;9.272;2023-02-04T04:11:24;7.03;;;1.27;;
44766;SDS011;30487;48.716;9.272;2023-02-04T04:13:50;7.43;;;1.40;;
44766;SDS011;30487;48.716;9.272;2023-02-04T04:16:16;5.32;;;1.33;;
44766;SDS011;30487;48.716;9.272;2023-02-04T04:18:41;10.75;;;1.60;;
44766;SDS011;30487;48.716;9.272;2023-02-04T04:21:07;8.73;;;1.55;;
44766;SDS011;30487;48.716;9.272;2023-02-04T04:23:32;4.85;;;1.35;;
44766;SDS011;30487;48.716;9.272;2023-02-04T04:25:58;6.72;;;1.80;;
44766;SDS011;30487;48.716;9.272;2023-02-04T04:28:24;8.25;;;2.08;;
44766;SDS011;30487;48.716;9.272;2023-02-04T04:30:50;6.53;;;1.58;;
44766;SDS011;30487;48.716;9.272;2023-02-04T04:33:15;4.68;;;1.30;;
44766;SDS011;30487;48.716;9.272;2023-02-04T04:35:41;9.75;;;1.60;;
44766;SDS011;30487;48.716;9.272;2023-02-04T04:38:06;5.55;;;2.00;;
44766;SDS011;30487;48.716;9.272;2023-02-04T04:40:32;4.97;;;1.70;;
44766;SDS011;30487;48.716;9.272;2023-02-04T04:42:58;6.97;;;1.58;;
44766;SDS011;30487;48.716;9.272;2023-02-04T04:45:23;5.07;;;1.50;;
44766;SDS011;30487;48.716;9.272;2023-02-04T04:47:49;6.22;;;1.50;;
44766;SDS011;30487;48.716;9.272;2023-02-04T04:50:14;7.18;;;1.65;;
44766;SDS011;30487;48.716;9.272;2023-02-04T04:52:40;7.97;;;1.60;;
44766;SDS011;30487;48.716;9.272;2023-02-04T04:55:06;4.78;;;1.38;;
44766;SDS011;30487;48.716;9.272;2023-02-04T04:57:32;7.80;;;1.63;;
44766;SDS011;30487;48.716;9.272;2023-02-04T04:59:58;5.90;;;1.70;;
44766;SDS011;30487;48.716;9.272;2023-02-04T05:02:23;4.70;;;1.35;;
44766;SDS011;30487;48.716;9.272;2023-02-04T05:04:49;2.45;;;1.33;;
44766;SDS011;30487;48.716;9.272;2023-02-04T05:07:14;7.75;;;1.50;;
44766;SDS011;30487;48.716;9.272;2023-02-04T05:09:40;4.68;;;1.50;;
44766;SDS011;30487;48.716;9.272;2023-02-04T05:12:06;3.00;;;1.27;;
44766;SDS011;30487;48.716;9.272;2023-02-04T05:14:31;5.28;;;1.50;;
44766;SDS011;30487;48.716;9.272;2023-02-04T05:16:57;5.50;;;1.80;;
44766;SDS011;30487;48.716;9.272;2023-02-04T05:19:22;5.78;;;1.67;;
44766;SDS011;30487;48.716;9.272;2023-02-04T05:21:48;5.20;;;1.58;;
44766;SDS011;30487;48.716;9.272;2023-02-04T05:24:14;5.15;;;1.67;;
44766;SDS011;30487;48.716;9.272;2023-02-04T05:26:39;8.35;;;1.60;;
44766;SDS011;30487;48.716;9.272;2023-02-04T05:29:05;4.57;;;1.63;;
44766;SDS011;30487;48.716;9.272;2023-02-04T05:31:31;7.90;;;2.20;;
44766;SDS011;30487;48.716;9.272;2023-02-04T05:33:57;5.78;;;2.08;;
44766;SDS011;30487;48.716;9.272;2023-02-04T05:36:22;6.70;;;1.83;;
44766;SDS011;30487;48.716;9.272;2023-02-04T05:38:48;7.05;;;2.17;;
44766;SDS011;30487;48.716;9.272;2023-02-04T05:41:14;11.00;;;2.28;;
44766;SDS011;30487;48.716;9.272;2023-02-04T05:43:40;6.47;;;2.08;;
44766;SDS011;30487;48.716;9.272;2023-02-04T05:46:05;9.15;;;2.03;;
44766;SDS011;30487;48.716;9.272;2023-02-04T05:48:31;9.93;;;2.50;;
44766;SDS011;30487;48.716;9.272;2023-02-04T05:50:56;7.85;;;2.53;;
44766;SDS011;30487;48.716;9.272;2023-02-04T05:53:22;7.15;;;1.88;;
44766;SDS011;30487;48.716;9.272;2023-02-04T05:55:47;13.02;;;2.70;;
44766;SDS011;30487;48.716;9.272;2023-02-04T05:58:13;9.77;;;2.58;;
44766;SDS011;30487;48.716;9.272;2023-02-04T06:00:39;9.15;;;2.47;;
44766;SDS011;30487;48.716;9.272;2023-02-04T06:03:04;9.80;;;2.63;;
44766;SDS011;30487;48.716;9.272;2023-02-04T06:05:30;8.15;;;2.60;;
44766;SDS011;30487;48.716;9.272;2023-02-04T06:07:56;9.18;;;2.47;;
44766;SDS011;30487;48.716;9.272;2023-02-04T06:10:22;10.80;;;2.75;;
44766;SDS011;30487;48.716;9.272;2023-02-04T06:12:48;8.23;;;2.45;;
44766;SDS011;30487;48.716;9.272;2023-02-04T06:15:13;13.65;;;2.95;;
44766;SDS011;30487;48.716;9.272;2023-02-04T06:17:39;12.38;;;2.88;;
44766;SDS011;30487;48.716;9.272;2023-02-04T06:20:05;8.13;;;2.88;;
44766;SDS011;30487;48.716;9.272;2023-02-04T06:22:31;8.57;;;3.17;;
44766;SDS011;30487;48.716;9.272;2023-02-04T06:24:57;11.45;;;2.90;;
44766;SDS011;30487;48.716;9.272;2023-02-04T06:27:23;10.85;;;3.17;;
44766;SDS011;30487;48.716;9.272;2023-02-04T06:29:50;11.63;;;2.63;;
44766;SDS011;30487;48.716;9.272;2023-02-04T06:32:17;7.03;;;2.83;;
44766;SDS011;30487;48.716;9.272;2023-02-04T06:34:44;11.32;;;3.70;;
44766;SDS011;30487;48.716;9.272;2023-02-04T06:37:09;11.57;;;3.42;;
44766;SDS011;30487;48.716;9.272;2023-02-04T06:39:36;12.13;;;3.10;;
44766;SDS011;30487;48.716;9.272;2023-02-04T06:42:02;12.50;;;3.10;;
44766;SDS011;30487;48.716;9.272;2023-02-04T06:44:28;10.15;;;2.53;;
44766;SDS011;30487;48.716;9.272;2023-02-04T06:46:53;12.48;;;3.10;;
44766;SDS011;30487;48.716;9.272;2023-02-04T06:49:19;11.38;;;2.92;;
44766;SDS011;30487;48.716;9.272;2023-02-04T06:51:44;13.88;;;3.10;;
44766;SDS011;30487;48.716;9.272;2023-02-04T06:54:10;11.25;;;3.45;;
44766;SDS011;30487;48.716;9.272;2023-02-04T06:56:36;13.10;;;2.92;;
44766;SDS011;30487;48.716;9.272;2023-02-04T06:59:01;7.68;;;2.63;;
44766;SDS011;30487;48.716;9.272;2023-02-04T07:01:27;13.80;;;3.67;;
44766;SDS011;30487;48.716;9.272;2023-02-04T07:03:53;16.00;;;3.40;;
44766;SDS011;30487;48.716;9.272;2023-02-04T07:06:18;15.00;;;3.17;;
44766;SDS011;30487;48.716;9.272;2023-02-04T07:08:44;18.95;;;3.75;;
44766;SDS011;30487;48.716;9.272;2023-02-04T07:11:11;15.15;;;3.22;;
44766;SDS011;30487;48.716;9.272;2023-02-04T07:13:36;15.65;;;3.83;;
44766;SDS011;30487;48.716;9.272;2023-02-04T07:16:02;13.88;;;3.40;;
44766;SDS011;30487;48.716;9.272;2023-02-04T07:18:28;17.15;;;3.47;;
44766;SDS011;30487;48.716;9.272;2023-02-04T07:20:53;12.15;;;4.00;;
44766;SDS011;30487;48.716;9.272;2023-02-04T07:23:19;9.25;;;3.40;;
44766;SDS011;30487;48.716;9.272;2023-02-04T07:25:44;11.82;;;3.58;;
44766;SDS011;30487;48.716;9.272;2023-02-04T07:28:10;14.15;;;3.42;;
44766;SDS011;30487;48.716;9.272;2023-02-04T07:30:36;13.60;;;3.63;;
44766;SDS011;30487;48.716;9.272;2023-02-04T07:33:01;12.15;;;3.13;;
44766;SDS011;30487;48.716;9.272;2023-02-04T07:35:27;14.38;;;3.13;;
44766;SDS011;30487;48.716;9.272;2023-02-04T07:37:52;10.32;;;3.42;;
44766;SDS011;30487;48.716;9.272;2023-02-04T07:40:18;15.02;;;3.08;;
44766;SDS011;30487;48.716;9.272;2023-02-04T07:42:45;10.43;;;3.05;;
44766;SDS011;30487;48.716;9.272;2023-02-04T07:45:11;11.60;;;3.10;;
44766;SDS011;30487;48.716;9.272;2023-02-04T07:47:36;13.30;;;3.17;;
44766;SDS011;30487;48.716;9.272;2023-02-04T07:50:02;13.73;;;2.92;;
44766;SDS011;30487;48.716;9.272;2023-02-04T07:52:28;13.30;;;2.83;;
44766;SDS011;30487;48.716;9.272;2023-02-04T07:54:53;16.17;;;3.78;;
44766;SDS011;30487;48.716;9.272;2023-02-04T07:57:19;13.35;;;2.80;;
44766;SDS011;30487;48.716;9.272;2023-02-04T07:59:45;14.23;;;2.88;;
44766;SDS011;30487;48.716;9.272;2023-02-04T08:02:10;10.13;;;3.03;;
44766;SDS011;30487;48.716;9.272;2023-02-04T08:04:36;9.13;;;2.70;;
44766;SDS011;30487;48.716;9.272;2023-02-04T08:07:04;15.55;;;3.10;;
44766;SDS011;30487;48.716;9.272;2023-02-04T08:09:30;11.93;;;3.17;;
44766;SDS011;30487;48.716;9.272;2023-02-04T08:11:55;13.25;;;2.90;;
44766;SDS011;30487;48.716;9.272;2023-02-04T08:14:21;12.15;;;2.85;;
44766;SDS011;30487;48.716;9.272;2023-02-04T08:16:47;12.13;;;2.75;;
44766;SDS011;30487;48.716;9.272;2023-02-04T08:19:12;12.93;;;2.60;;
44766;SDS011;30487;48.716;9.272;2023-02-04T08:21:43;15.32;;;3.10;;
44766;SDS011;30487;48.716;9.272;2023-02-04T08:24:10;11.60;;;2.58;;
44766;SDS011;30487;48.716;9.272;2023-02-04T08:26:36;17.40;;;3.22;;
44766;SDS011;30487;48.716;9.272;2023-02-04T08:29:02;16.13;;;2.75;;
44766;SDS011;30487;48.716;9.272;2023-02-04T08:31:27;15.43;;;2.72;;
44766;SDS011;30487;48.716;9.272;2023-02-04T08:33:53;16.73;;;2.63;;
44766;SDS011;30487;48.716;9.272;2023-02-04T08:36:18;15.80;;;2.60;;
44766;SDS011;30487;48.716;9.272;2023-02-04T08:38:44;10.75;;;2.70;;
44766;SDS011;30487;48.716;9.272;2023-02-04T08:41:10;14.55;;;2.83;;
44766;SDS011;30487;48.716;9.272;2023-02-04T08:43:35;10.82;;;2.85;;
44766;SDS011;30487;48.716;9.272;2023-02-04T08:46:01;12.35;;;2.90;;
44766;SDS011;30487;48.716;9.272;2023-02-04T08:48:27;12.98;;;2.42;;
44766;SDS011;30487;48.716;9.272;2023-02-04T08:50:52;11.38;;;2.35;;
44766;SDS011;30487;48.716;9.272;2023-02-04T08:53:18;13.57;;;2.67;;
44766;SDS011;30487;48.716;9.272;2023-02-04T08:55:43;12.18;;;2.03;;
44766;SDS011;30487;48.716;9.272;2023-02-04T08:58:09;13.80;;;2.53;;
44766;SDS011;30487;48.716;9.272;2023-02-04T09:00:35;9.90;;;2.35;;
44766;SDS011;30487;48.716;9.272;2023-02-04T09:03:00;10.38;;;2.55;;
44766;SDS011;30487;48.716;9.272;2023-02-04T09:05:26;17.40;;;2.97;;
44766;SDS011;30487;48.716;9.272;2023-02-04T09:07:51;16.00;;;2.78;;
44766;SDS011;30487;48.716;9.272;2023-02-04T09:10:17;13.25;;;2.67;;
44766;SDS011;30487;48.716;9.272;2023-02-04T09:12:43;13.98;;;2.55;;
44766;SDS011;30487;48.716;9.272;2023-02-04T09:15:09;10.05;;;2.47;;
44766;SDS011;30487;48.716;9.272;2023-02-04T09:17:35;15.05;;;2.83;;
44766;SDS011;30487;48.716;9.272;2023-02-04T09:20:01;14.55;;;3.08;;
44766;SDS011;30487;48.716;9.272;2023-02-04T09:22:28;14.52;;;2.72;;
44766;SDS011;30487;48.716;9.272;2023-02-04T09:24:53;14.45;;;2.63;;
44766;SDS011;30487;48.716;9.272;2023-02-04T09:27:20;13.52;;;2.25;;
44766;SDS011;30487;48.716;9.272;2023-02-04T09:29:46;17.02;;;2.78;;
44766;SDS011;30487;48.716;9.272;2023-02-04T09:32:11;15.00;;;2.30;;
44766;SDS011;30487;48.716;9.272;2023-02-04T09:34:37;10.10;;;2.17;;
44766;SDS011;30487;48.716;9.272;2023-02-04T09:37:03;6.90;;;2.20;;
44766;SDS011;30487;48.716;9.272;2023-02-04T09:39:28;15.45;;;2.42;;
44766;SDS011;30487;48.716;9.272;2023-02-04T09:41:54;7.97;;;2.10;;
44766;SDS011;30487;48.716;9.272;2023-02-04T09:44:21;15.27;;;2.30;;
44766;SDS011;30487;48.716;9.272;2023-02-04T09:46:51;14.10;;;2.88;;
44766;SDS011;30487;48.716;9.272;2023-02-04T09:49:20;12.73;;;1.95;;
44766;SDS011;30487;48.716;9.272;2023-02-04T09:51:46;9.82;;;2.40;;
44766;SDS011;30487;48.716;9.272;2023-02-04T09:54:14;15.48;;;2.92;;
44766;SDS011;30487;48.716;9.272;2023-02-04T09:56:42;10.90;;;2.55;;
44766;SDS011;30487;48.716;9.272;2023-02-04T09:59:11;9.27;;;2.13;;
44766;SDS011;30487;48.716;9.272;2023-02-04T10:01:38;13.32;;;2.08;;
44766;SDS011;30487;48.716;9.272;2023-02-04T10:04:04;11.73;;;2.60;;
44766;SDS011;30487;48.716;9.272;2023-02-04T10:06:33;9.27;;;1.92;;
44766;SDS011;30487;48.716;9.272;2023-02-04T10:09:01;13.10;;;2.10;;
44766;SDS011;30487;48.716;9.272;2023-02-04T10:11:27;10.95;;;1.95;;
44766;SDS011;30487;48.716;9.272;2023-02-04T10:13:57;11.23;;;2.42;;
44766;SDS011;30487;48.716;9.272;2023-02-04T10:16:23;7.15;;;1.85;;
44766;SDS011;30487;48.716;9.272;2023-02-04T10:19:04;11.98;;;2.20;;
44766;SDS011;30487;48.716;9.272;2023-02-04T10:21:35;9.48;;;2.15;;
44766;SDS011;30487;48.716;9.272;2023-02-04T10:24:02;13.02;;;2.33;;
44766;SDS011;30487;48.716;9.272;2023-02-04T10:26:31;11.65;;;2.08;;
44766;SDS011;30487;48.716;9.272;2023-02-04T10:29:02;9.05;;;1.77;;
44766;SDS011;30487;48.716;9.272;2023-02-04T10:31:34;9.15;;;1.70;;
44766;SDS011;30487;48.716;9.272;2023-02-04T10:34:02;10.63;;;1.90;;
44766;SDS011;30487;48.716;9.272;2023-02-04T10:36:30;11.80;;;2.60;;
44766;SDS011;30487;48.716;9.272;2023-02-04T10:39:00;12.80;;;2.20;;
44766;SDS011;30487;48.716;9.272;2023-02-04T10:41:26;9.05;;;2.17;;
44766;SDS011;30487;48.716;9.272;2023-02-04T10:44:05;10.65;;;2.20;;
44766;SDS011;30487;48.716;9.272;2023-02-04T10:46:33;15.48;;;2.25;;
44766;SDS011;30487;48.716;9.272;2023-02-04T10:48:58;9.05;;;1.73;;
44766;SDS011;30487;48.716;9.272;2023-02-04T10:51:24;12.15;;;2.88;;
44766;SDS011;30487;48.716;9.272;2023-02-04T10:53:50;7.60;;;1.92;;
44766;SDS011;30487;48.716;9.272;2023-02-04T10:56:34;15.00;;;2.30;;
44766;SDS011;30487;48.716;9.272;2023-02-04T10:59:00;9.23;;;1.85;;
44766;SDS011;30487;48.716;9.272;2023-02-04T11:01:25;13.63;;;2.50;;
44766;SDS011;30487;48.716;9.272;2023-02-04T11:03:53;9.23;;;1.95;;
44766;SDS011;30487;48.716;9.272;2023-02-04T11:06:19;12.98;;;2.33;;
44766;SDS011;30487;48.716;9.272;2023-02-04T11:08:48;11.45;;;2.08;;
44766;SDS011;30487;48.716;9.272;2023-02-04T11:11:18;14.25;;;2.63;;
44766;SDS011;30487;48.716;9.272;2023-02-04T11:21:14;13.52;;;1.95;;
44766;SDS011;30487;48.716;9.272;2023-02-04T11:23:46;12.90;;;1.90;;
44766;SDS011;30487;48.716;9.272;2023-02-04T11:28:48;12.45;;;2.38;;
44766;SDS011;30487;48.716;9.272;2023-02-04T11:31:25;19.95;;;2.65;;
44766;SDS011;30487;48.716;9.272;2023-02-04T11:37:39;12.80;;;2.30;;
44766;SDS011;30487;48.716;9.272;2023-02-04T11:39:41;14.02;;;1.98;;
44766;SDS011;30487;48.716;9.272;2023-02-04T11:42:21;8.50;;;2.00;;
44766;SDS011;30487;48.716;9.272;2023-02-04T11:45:14;14.45;;;2.38;;
44766;SDS011;30487;48.716;9.272;2023-02-04T11:47:55;14.80;;;2.20;;
44766;SDS011;30487;48.716;9.272;2023-02-04T11:50:30;13.25;;;2.50;;
44766;SDS011;30487;48.716;9.272;2023-02-04T11:55:26;9.82;;;1.85;;
44766;SDS011;30487;48.716;9.272;2023-02-04T11:57:54;17.27;;;2.75;;
44766;SDS011;30487;48.716;9.272;2023-02-04T12:00:22;9.63;;;2.38;;
44766;SDS011;30487;48.716;9.272;2023-02-04T12:03:00;12.80;;;2.40;;
44766;SDS011;30487;48.716;9.272;2023-02-04T12:08:11;12.30;;;2.20;;
44766;SDS011;30487;48.716;9.272;2023-02-04T12:13:57;12.25;;;2.40;;
44766;SDS011;30487;48.716;9.272;2023-02-04T12:16:38;12.52;;;2.13;;
44766;SDS011;30487;48.716;9.272;2023-02-04T12:19:09;12.02;;;2.22;;
44766;SDS011;30487;48.716;9.272;2023-02-04T12:21:36;14.63;;;2.60;;
44766;SDS011;30487;48.716;9.272;2023-02-04T12:24:02;8.73;;;2.15;;
44766;SDS011;30487;48.716;9.272;2023-02-04T12:26:28;10.75;;;2.58;;
44766;SDS011;30487;48.716;9.272;2023-02-04T12:28:53;18.08;;;2.65;;
44766;SDS011;30487;48.716;9.272;2023-02-04T12:31:19;12.90;;;2.55;;
44766;SDS011;30487;48.716;9.272;2023-02-04T12:33:45;12.65;;;2.13;;
44766;SDS011;30487;48.716;9.272;2023-02-04T12:36:10;10.52;;;2.03;;
44766;SDS011;30487;48.716;9.272;2023-02-04T12:38:36;13.48;;;2.10;;
44766;SDS011;30487;48.716;9.272;2023-02-04T12:41:01;12.40;;;3.38;;
44766;SDS011;30487;48.716;9.272;2023-02-04T12:43:27;14.80;;;3.20;;
44766;SDS011;30487;48.716;9.272;2023-02-04T12:45:53;14.13;;;2.33;;
44766;SDS011;30487;48.716;9.272;2023-02-04T12:48:19;13.07;;;2.17;;
44766;SDS011;30487;48.716;9.272;2023-02-04T12:50:45;10.98;;;2.42;;
44766;SDS011;30487;48.716;9.272;2023-02-04T12:53:10;11.43;;;2.03;;
44766;SDS011;30487;48.716;9.272;2023-02-04T12:55:36;8.38;;;2.08;;
44766;SDS011;30487;48.716;9.272;2023-02-04T12:58:02;15.32;;;2.47;;
44766;SDS011;30487;48.716;9.272;2023-02-04T13:00:28;9.63;;;1.77;;
44766;SDS011;30487;48.716;9.272;2023-02-04T13:02:53;10.77;;;2.20;;
44766;SDS011;30487;48.716;9.272;2023-02-04T13:05:19;9.05;;;1.63;;
44766;SDS011;30487;48.716;9.272;2023-02-04T13:07:45;8.57;;;2.17;;
44766;SDS011;30487;48.716;9.272;2023-02-04T13:10:11;10.18;;;2.03;;
44766;SDS011;30487;48.716;9.272;2023-02-04T13:12:38;12.82;;;2.20;;
44766;SDS011;30487;48.716;9.272;2023-02-04T13:15:04;11.80;;;2.00;;
44766;SDS011;30487;48.716;9.272;2023-02-04T13:17:30;10.93;;;1.92;;
44766;SDS011;30487;48.716;9.272;2023-02-04T13:19:56;12.60;;;2.28;;
44766;SDS011;30487;48.716;9.272;2023-02-04T13:22:21;11.10;;;2.20;;
44766;SDS011;30487;48.716;9.272;2023-02-04T13:24:47;9.50;;;2.30;;
44766;SDS011;30487;48.716;9.272;2023-02-04T13:27:12;8.40;;;2.33;;
44766;SDS011;30487;48.716;9.272;2023-02-04T13:29:39;7.95;;;1.98;;
44766;SDS011;30487;48.716;9.272;2023-02-04T13:32:05;12.98;;;2.30;;
44766;SDS011;30487;48.716;9.272;2023-02-04T13:34:30;11.23;;;2.40;;
44766;SDS011;30487;48.716;9.272;2023-02-04T13:36:56;9.45;;;1.90;;
44766;SDS011;30487;48.716;9.272;2023-02-04T13:39:21;10.57;;;2.45;;
44766;SDS011;30487;48.716;9.272;2023-02-04T13:41:47;14.65;;;2.00;;
44766;SDS011;30487;48.716;9.272;2023-02-04T13:44:13;13.73;;;2.03;;
44766;SDS011;30487;48.716;9.272;2023-02-04T13:46:39;8.80;;;1.75;;
44766;SDS011;30487;48.716;9.272;2023-02-04T13:49:05;10.55;;;2.05;;
44766;SDS011;30487;48.716;9.272;2023-02-04T13:51:30;11.50;;;1.90;;
44766;SDS011;30487;48.716;9.272;2023-02-04T13:53:56;13.60;;;2.15;;
44766;SDS011;30487;48.716;9.272;2023-02-04T13:56:23;10.07;;;1.50;;
44766;SDS011;30487;48.716;9.272;2023-02-04T13:58:48;10.48;;;1.80;;
44766;SDS011;30487;48.716;9.272;2023-02-04T14:01:14;11.95;;;2.05;;
44766;SDS011;30487;48.716;9.272;2023-02-04T14:03:40;9.13;;;1.90;;
44766;SDS011;30487;48.716;9.272;2023-02-04T14:06:06;16.48;;;2.30;;
44766;SDS011;30487;48.716;9.272;2023-02-04T14:08:33;12.00;;;2.40;;
44766;SDS011;30487;48.716;9.272;2023-02-04T14:10:59;13.02;;;2.90;;
44766;SDS011;30487;48.716;9.272;2023-02-04T14:13:24;15.32;;;2.10;;
44766;SDS011;30487;48.716;9.272;2023-02-04T14:15:51;10.85;;;2.10;;
44766;SDS011;30487;48.716;9.272;2023-02-04T14:18:16;13.77;;;2.00;;
44766;SDS011;30487;48.716;9.272;2023-02-04T14:20:42;11.15;;;2.03;;
44766;SDS011;30487;48.716;9.272;2023-02-04T14:23:08;9.45;;;2.03;;
44766;SDS011;30487;48.716;9.272;2023-02-04T14:25:33;11.57;;;1.75;;
44766;SDS011;30487;48.716;9.272;2023-02-04T14:27:59;12.18;;;1.45;;
44766;SDS011;30487;48.716;9.272;2023-02-04T14:30:26;9.75;;;1.95;;
44766;SDS011;30487;48.716;9.272;2023-02-04T14:32:53;7.93;;;1.55;;
44766;SDS011;30487;48.716;9.272;2023-02-04T14:35:19;10.23;;;2.00;;
44766;SDS011;30487;48.716;9.272;2023-02-04T14:37:45;8.88;;;1.75;;
44766;SDS011;30487;48.716;9.272;2023-02-04T14:40:11;8.50;;;1.75;;
44766;SDS011;30487;48.716;9.272;2023-02-04T14:42:38;11.10;;;1.90;;
44766;SDS011;30487;48.716;9.272;2023-02-04T14:45:07;9.52;;;1.90;;
44766;SDS011;30487;48.716;9.272;2023-02-04T14:47:34;10.93;;;1.83;;
44766;SDS011;30487;48.716;9.272;2023-02-04T14:50:00;9.07;;;2.08;;
44766;SDS011;30487;48.716;9.272;2023-02-04T14:52:26;9.45;;;2.05;;
44766;SDS011;30487;48.716;9.272;2023-02-04T14:54:52;9.15;;;2.13;;
44766;SDS011;30487;48.716;9.272;2023-02-04T14:57:18;13.15;;;2.13;;
44766;SDS011;30487;48.716;9.272;2023-02-04T14:59:43;12.13;;;1.90;;
44766;SDS011;30487;48.716;9.272;2023-02-04T15:02:09;11.68;;;2.00;;